Time;durP1;ratioP1;P1;durP2;ratioP2;P2;SDS_P1;SDS_P2;PMS_P1;PMS_P2;Temp;Humidity;BMP_temperature;BMP_pressure;BME280_temperature;BME280_humidity;BME280_pressure;Samples;Min_cycle;Max_cycle;Signal;HPM_P1;HPM_P2
2023/05/08 00:01:11;;;;;;;9.35;6.25;;;;;;;15.86;56.54;94805.75;4222509;28;20106;-61
2023/05/08 00:03:12;;;;;;;12.73;7.10;;;;;;;15.84;56.42;94805.09;4217598;28;20126;-60
2023/05/08 00:05:14;;;;;;;8.95;6.00;;;;;;;15.82;56.31;94802.66;4225242;28;20441;-59
2023/05/08 00:07:16;;;;;;;10.63;6.25;;;;;;;15.82;56.25;94801.84;4210801;28;20067;-61
2023/05/08 00:09:19;;;;;;;9.45;6.45;;;;;;;15.77;56.22;94800.56;4226648;28;20039;-60
2023/05/08 00:11:21;;;;;;;10.43;6.15;;;;;;;15.70;56.59;94804.94;4226684;28;20047;-61
2023/05/08 00:13:23;;;;;;;7.70;6.20;;;;;;;15.67;56.84;94801.84;4226346;28;20051;-61
2023/05/08 00:15:24;;;;;;;12.60;6.10;;;;;;;15.59;57.43;94809.91;4224459;28;20058;-58
2023/05/08 00:17:26;;;;;;;7.95;5.88;;;;;;;15.48;57.77;94806.72;4213913;28;20079;-58
2023/05/08 00:19:28;;;;;;;12.27;6.35;;;;;;;15.47;57.85;94806.94;4226672;28;20133;-60
2023/05/08 00:21:30;;;;;;;7.78;6.07;;;;;;;15.47;57.78;94806.94;4225068;28;20093;-60
2023/05/08 00:23:32;;;;;;;8.20;6.43;;;;;;;15.49;57.87;94808.38;4223845;28;20122;-57
2023/05/08 00:25:33;;;;;;;10.13;6.45;;;;;;;15.49;57.37;94813.66;4225725;28;20575;-61
2023/05/08 00:27:35;;;;;;;10.82;6.53;;;;;;;15.47;57.43;94815.66;4223743;28;20135;-62
2023/05/08 00:29:39;;;;;;;10.88;6.18;;;;;;;15.49;57.55;94818.94;4224904;28;20514;-61
2023/05/08 00:31:40;;;;;;;11.27;6.35;;;;;;;15.40;57.57;94814.78;4208666;28;20476;-61
2023/05/08 00:33:42;;;;;;;9.75;6.47;;;;;;;15.36;57.86;94813.53;4222550;28;20044;-61
2023/05/08 00:35:44;;;;;;;19.65;7.07;;;;;;;15.36;57.82;94816.97;4219949;28;20062;-62
2023/05/08 00:37:45;;;;;;;7.85;5.90;;;;;;;15.36;57.97;94813.53;4219791;28;20043;-61
2023/05/08 00:39:47;;;;;;;8.95;5.88;;;;;;;15.33;57.83;94809.41;4221024;28;20075;-62
2023/05/08 00:41:48;;;;;;;8.75;6.30;;;;;;;15.29;57.83;94812.59;4218721;28;20466;-62
2023/05/08 00:43:50;;;;;;;7.72;5.95;;;;;;;15.29;58.05;94812.59;4217843;28;20153;-61
2023/05/08 00:45:53;;;;;;;10.15;6.75;;;;;;;15.30;57.91;94812.44;4220567;27;20093;-61
2023/05/08 00:47:55;;;;;;;9.85;5.93;;;;;;;15.28;58.23;94810.97;4216847;28;20042;-62
2023/05/08 00:49:58;;;;;;;8.13;6.13;;;;;;;15.28;58.17;94808.34;4213800;28;20070;-62
2023/05/08 00:51:59;;;;;;;8.27;6.47;;;;;;;15.26;58.08;94811.16;4207980;28;20040;-61
2023/05/08 00:54:01;;;;;;;10.10;6.50;;;;;;;15.24;58.06;94821.09;4212714;28;20190;-61
2023/05/08 00:56:04;;;;;;;9.05;5.72;;;;;;;15.22;57.98;94814.34;4209606;28;20468;-61
2023/05/08 00:58:06;;;;;;;7.70;6.00;;;;;;;15.20;58.04;94825.09;4219201;28;20492;-60
2023/05/08 01:00:08;;;;;;;8.55;6.15;;;;;;;15.21;57.98;94821.47;4227254;28;20378;-61
2023/05/08 01:02:10;;;;;;;7.32;5.93;;;;;;;15.20;58.09;94819.81;4212204;28;20051;-62
2023/05/08 01:04:13;;;;;;;9.82;6.53;;;;;;;15.03;58.49;94824.47;4218374;28;20074;-60
2023/05/08 01:06:14;;;;;;;8.38;5.85;;;;;;;14.93;58.76;94826.59;4216039;28;20044;-60
2023/05/08 01:08:16;;;;;;;9.98;6.38;;;;;;;14.93;59.03;94818.69;4210307;28;20105;-61
2023/05/08 01:10:18;;;;;;;9.02;6.05;;;;;;;14.94;58.96;94826.38;4210649;28;20074;-60
2023/05/08 01:12:26;;;;;;;8.40;6.10;;;;;;;14.93;59.02;94831.88;4218126;28;20048;-60
2023/05/08 01:15:01;;;;;;;9.10;6.15;;;;;;;14.95;58.83;94828.03;4215890;28;20048;-60
2023/05/08 01:17:10;;;;;;;9.05;6.32;;;;;;;14.98;59.04;94834.75;4207797;28;20380;-62
2023/05/08 01:19:39;;;;;;;9.02;6.50;;;;;;;14.99;59.00;94827.66;4216461;28;20519;-62
2023/05/08 01:21:56;;;;;;;10.43;6.47;;;;;;;14.97;58.75;94827.88;4212152;28;20085;-61
2023/05/08 01:24:25;;;;;;;10.77;6.28;;;;;;;14.94;58.55;94828.22;4222938;28;20043;-61
2023/05/08 01:26:41;;;;;;;8.18;6.38;;;;;;;14.89;58.61;94827.94;4205070;28;20482;-61
2023/05/08 01:29:25;;;;;;;7.43;6.13;;;;;;;14.84;59.12;94825.03;4225167;28;20430;-62
2023/05/08 01:31:35;;;;;;;10.85;6.40;;;;;;;14.85;59.09;94824.03;4190217;28;20568;-60
2023/05/08 01:34:11;;;;;;;10.15;6.32;;;;;;;14.88;58.87;94827.09;4207339;28;20413;-61
2023/05/08 01:36:33;;;;;;;8.10;6.47;;;;;;;14.81;58.94;94825.41;4214236;28;20155;-63
2023/05/08 01:38:59;;;;;;;10.48;5.90;;;;;;;14.76;59.40;94822.50;4222930;28;21506;-60
2023/05/08 01:41:13;;;;;;;9.23;6.40;;;;;;;14.77;59.33;94816.22;4223100;28;20044;-60
2023/05/08 01:43:25;;;;;;;10.40;6.88;;;;;;;14.76;59.08;94814.59;4216065;28;20048;-61
2023/05/08 01:45:36;;;;;;;8.13;6.22;;;;;;;14.68;59.29;94813.66;4214900;28;20051;-61
2023/05/08 01:47:38;;;;;;;10.68;6.30;;;;;;;14.67;58.94;94814.69;4216212;28;20043;-62
2023/05/08 01:49:45;;;;;;;10.60;6.38;;;;;;;14.69;58.93;94812.69;4221225;28;20177;-60
2023/05/08 01:51:59;;;;;;;10.13;6.43;;;;;;;14.71;59.22;94810.69;4224498;28;20062;-62
2023/05/08 01:54:04;;;;;;;8.50;6.18;;;;;;;14.69;59.06;94810.03;4216908;28;20044;-62
2023/05/08 01:56:12;;;;;;;7.90;6.60;;;;;;;14.71;59.11;94815.94;4205297;28;20059;-62
2023/05/08 01:58:15;;;;;;;7.50;6.22;;;;;;;14.70;58.85;94818.75;4209952;28;20044;-60
2023/05/08 02:00:19;;;;;;;8.30;6.18;;;;;;;14.70;58.93;94822.22;4209107;28;20090;-61
2023/05/08 02:02:21;;;;;;;9.45;5.55;;;;;;;14.68;58.63;94816.28;4207814;28;20056;-62
2023/05/08 02:04:24;;;;;;;7.18;6.30;;;;;;;14.66;58.89;94810.38;4212047;28;20085;-60
2023/05/08 02:06:27;;;;;;;8.18;6.45;;;;;;;14.67;58.78;94811.19;4209551;28;20205;-62
2023/05/08 02:08:30;;;;;;;6.97;5.80;;;;;;;14.66;58.76;94812.22;4220756;28;20072;-60
2023/05/08 02:10:32;;;;;;;7.05;5.68;;;;;;;14.66;58.96;94814.84;4216067;28;20701;-62
2023/05/08 02:12:36;;;;;;;10.68;6.43;;;;;;;14.66;58.72;94806.94;4210342;28;20422;-63
2023/05/08 02:14:39;;;;;;;10.27;6.40;;;;;;;14.63;58.98;94817.84;4212472;28;20186;-59
2023/05/08 02:16:41;;;;;;;9.75;6.53;;;;;;;14.64;59.09;94820.28;4211924;28;20121;-59
2023/05/08 02:18:51;;;;;;;11.38;6.38;;;;;;;14.62;59.25;94811.75;4215890;28;20077;-59
2023/05/08 02:20:53;;;;;;;9.82;6.75;;;;;;;14.56;59.58;94819.56;4214360;28;20067;-60
2023/05/08 02:22:55;;;;;;;10.95;6.80;;;;;;;14.43;59.94;94817.50;4215616;28;20092;-60
2023/05/08 02:24:57;;;;;;;8.00;5.88;;;;;;;14.39;60.16;94819.72;4216460;28;20153;-60
2023/05/08 02:26:59;;;;;;;7.38;6.22;;;;;;;14.35;59.96;94815.78;4218124;27;20047;-60
2023/05/08 02:29:02;;;;;;;7.82;6.22;;;;;;;14.32;60.03;94814.31;4228363;28;20072;-61
2023/05/08 02:31:04;;;;;;;9.45;6.28;;;;;;;14.32;60.27;94816.94;4214412;28;20166;-60
2023/05/08 02:33:07;;;;;;;14.30;6.82;;;;;;;14.29;60.09;94821.78;4219767;28;20047;-62
2023/05/08 02:35:12;;;;;;;12.73;6.78;;;;;;;14.26;60.38;94820.31;4223248;28;20048;-58
2023/05/08 02:37:14;;;;;;;9.13;6.40;;;;;;;14.26;59.96;94816.84;4220045;28;20131;-62
2023/05/08 02:39:16;;;;;;;10.13;6.45;;;;;;;14.28;60.01;94813.06;4219359;28;20059;-60
2023/05/08 02:41:21;;;;;;;7.57;6.13;;;;;;;14.32;59.91;94822.22;4223303;28;20314;-61
2023/05/08 02:43:23;;;;;;;8.95;6.10;;;;;;;14.31;60.04;94825.03;4224368;28;20465;-61
2023/05/08 02:45:28;;;;;;;7.45;5.95;;;;;;;14.33;59.81;94823.06;4224579;28;20126;-61
2023/05/08 02:47:57;;;;;;;10.10;7.05;;;;;;;14.30;60.06;94826.88;4210840;28;20127;-61
2023/05/08 02:50:08;;;;;;;7.50;5.68;;;;;;;14.31;59.59;94820.59;4211005;28;20124;-61
2023/05/08 02:52:21;;;;;;;9.10;6.40;;;;;;;14.28;59.71;94822.75;4218520;28;20048;-62
2023/05/08 02:54:37;;;;;;;8.93;6.35;;;;;;;14.13;59.76;94823.56;4222865;28;20048;-60
2023/05/08 02:57:09;;;;;;;9.50;6.40;;;;;;;13.76;60.79;94826.97;4222063;28;20048;-60
2023/05/08 02:59:16;;;;;;;12.25;6.30;;;;;;;13.51;61.59;94832.41;4218945;28;20206;-61
2023/05/08 03:01:27;;;;;;;10.57;6.10;;;;;;;13.41;62.45;94825.72;4221688;28;20081;-62
2023/05/08 03:03:44;;;;;;;9.82;6.28;;;;;;;13.30;62.24;94826.91;4218038;28;20362;-61
2023/05/08 03:06:09;;;;;;;10.13;6.32;;;;;;;13.17;62.49;94826.63;4213440;28;20043;-61
2023/05/08 03:08:14;;;;;;;8.68;6.32;;;;;;;13.19;62.61;94829.91;4219121;28;20077;-60
2023/05/08 03:10:18;;;;;;;12.88;6.30;;;;;;;13.31;62.43;94829.38;4216687;28;20132;-60
2023/05/08 03:12:22;;;;;;;8.43;5.95;;;;;;;13.42;62.09;94830.81;4211498;28;20131;-62
2023/05/08 03:14:25;;;;;;;10.23;6.50;;;;;;;13.55;62.03;94829.41;4218445;28;20551;-60
2023/05/08 03:16:31;;;;;;;8.68;6.00;;;;;;;13.66;61.57;94824.56;4210395;28;20083;-60
2023/05/08 03:18:35;;;;;;;10.60;6.30;;;;;;;13.75;61.01;94829.78;4209476;28;20136;-59
2023/05/08 03:20:39;;;;;;;9.20;6.47;;;;;;;13.83;60.95;94827.91;4210942;28;20518;-62
2023/05/08 03:22:42;;;;;;;10.02;6.38;;;;;;;13.92;60.61;94831.31;4209575;28;20047;-60
2023/05/08 03:24:45;;;;;;;8.52;5.78;;;;;;;13.99;59.97;94836.69;4210834;28;20573;-59
2023/05/08 03:26:47;;;;;;;7.47;5.85;;;;;;;14.03;59.52;94838.78;4210560;28;20086;-62
2023/05/08 03:28:49;;;;;;;6.90;5.75;;;;;;;14.06;59.57;94832.34;4221620;28;20519;-61
2023/05/08 03:30:51;;;;;;;8.20;5.90;;;;;;;14.11;59.61;94835.25;4218220;28;20052;-61
2023/05/08 03:32:54;;;;;;;7.55;5.57;;;;;;;14.14;59.49;94835.72;4212678;28;20097;-60
2023/05/08 03:34:57;;;;;;;8.23;5.80;;;;;;;14.19;59.64;94844.91;4220043;28;20151;-62
2023/05/08 03:36:59;;;;;;;7.55;6.03;;;;;;;14.19;59.77;94843.09;4225119;28;20044;-57
2023/05/08 03:39:01;;;;;;;9.13;6.28;;;;;;;14.21;59.47;94846.38;4227283;28;20043;-62
2023/05/08 03:41:03;;;;;;;7.78;6.50;;;;;;;13.99;59.70;94839.31;4221093;28;20056;-59
2023/05/08 03:43:09;;;;;;;9.65;6.40;;;;;;;13.93;60.25;94836.38;4222165;28;20594;-58
2023/05/08 03:45:12;;;;;;;9.32;6.30;;;;;;;13.67;61.41;94833.28;4217229;28;20097;-58
2023/05/08 03:47:15;;;;;;;11.82;7.28;;;;;;;13.53;61.31;94842.75;4224849;28;20465;-58
2023/05/08 03:49:17;;;;;;;11.23;6.35;;;;;;;13.30;62.36;94837.44;4224757;28;20407;-57
2023/05/08 03:51:20;;;;;;;10.23;6.38;;;;;;;13.41;62.83;94837.06;4225373;28;20452;-57
2023/05/08 03:53:22;;;;;;;12.05;6.50;;;;;;;13.57;61.85;94844.03;4226063;28;20094;-59
2023/05/08 03:55:23;;;;;;;8.75;6.43;;;;;;;13.51;61.32;94840.28;4216667;28;20051;-58
2023/05/08 03:57:27;;;;;;;8.93;6.22;;;;;;;13.67;61.33;94849.06;4210966;28;20052;-60
2023/05/08 03:59:38;;;;;;;9.02;6.57;;;;;;;13.83;60.82;94843.72;4212628;28;20134;-60
2023/05/08 04:01:54;;;;;;;9.63;5.93;;;;;;;14.00;60.68;94839.13;4211973;28;20052;-59
2023/05/08 04:04:03;;;;;;;7.75;6.50;;;;;;;14.07;59.92;94852.44;4210869;28;20113;-60
2023/05/08 04:06:17;;;;;;;8.93;5.85;;;;;;;14.02;60.03;94852.94;4209994;28;20052;-59
2023/05/08 04:08:20;;;;;;;;;;;;;;;14.06;60.09;94856.84;4210899;28;20055;-60
2023/05/08 04:10:23;;;;;;;7.90;5.82;;;;;;;14.17;59.89;94849.53;4220405;28;19919;-59
2023/05/08 04:12:58;;;;;;;10.05;5.97;;;;;;;14.32;59.37;94845.94;4221804;27;20047;-61
2023/05/08 04:15:04;;;;;;;8.70;6.22;;;;;;;14.46;59.24;94854.88;4212705;28;20048;-62
2023/05/08 04:17:08;;;;;;;10.20;6.18;;;;;;;14.54;58.41;94854.00;4209637;28;20075;-62
2023/05/08 04:19:14;;;;;;;6.40;5.70;;;;;;;14.62;58.61;94853.94;4209905;28;20044;-62
2023/05/08 04:21:22;;;;;;;7.22;5.55;;;;;;;14.68;58.48;94855.03;4209226;28;20048;-62
2023/05/08 04:23:24;;;;;;;7.10;5.65;;;;;;;14.71;58.58;94859.94;4209560;28;20071;-63
2023/05/08 04:25:26;;;;;;;8.20;6.22;;;;;;;14.78;58.29;94858.22;4212122;28;20059;-63
2023/05/08 04:27:29;;;;;;;9.55;5.97;;;;;;;14.83;58.56;94865.59;4214950;28;20073;-62
2023/05/08 04:29:31;;;;;;;8.02;5.18;;;;;;;14.86;58.44;94870.50;4223507;28;20051;-62
2023/05/08 04:31:33;;;;;;;9.00;5.88;;;;;;;14.84;57.95;94869.84;4214351;28;20421;-62
2023/05/08 04:33:35;;;;;;;9.30;4.72;;;;;;;14.81;57.58;94867.59;4220685;28;20051;-60
2023/05/08 04:35:37;;;;;;;6.95;5.88;;;;;;;14.88;57.64;94863.22;4226073;28;20075;-64
2023/05/08 04:37:40;;;;;;;8.90;6.32;;;;;;;14.97;57.54;94864.78;4212980;28;20056;-63
2023/05/08 04:39:42;;;;;;;6.20;5.18;;;;;;;15.02;57.11;94859.78;4222499;28;20086;-60
2023/05/08 04:41:44;;;;;;;10.25;4.82;;;;;;;15.11;56.85;94861.31;4221445;28;20358;-60
2023/05/08 04:43:46;;;;;;;6.88;4.40;;;;;;;15.17;56.17;94853.69;4225720;28;20043;-60
2023/05/08 04:45:47;;;;;;;7.63;4.38;;;;;;;15.21;55.87;94858.41;4226339;28;20449;-60
2023/05/08 04:47:49;;;;;;;12.32;4.30;;;;;;;15.22;56.00;94857.41;4222529;28;20467;-58
2023/05/08 04:49:51;;;;;;;9.13;4.22;;;;;;;15.29;55.79;94854.84;4215456;28;20430;-56
2023/05/08 04:51:52;;;;;;;7.85;4.40;;;;;;;15.30;55.59;94851.22;4224925;28;20108;-59
2023/05/08 04:53:54;;;;;;;10.02;4.20;;;;;;;15.33;55.51;94848.19;4225728;28;20463;-59
2023/05/08 04:55:57;;;;;;;7.85;3.85;;;;;;;15.42;55.14;94849.72;4211924;28;20160;-60
2023/05/08 04:57:59;;;;;;;7.78;3.67;;;;;;;15.45;54.52;94844.06;4225168;28;20092;-61
2023/05/08 05:00:00;;;;;;;7.07;4.53;;;;;;;15.38;54.11;94848.47;4225624;27;20047;-62
2023/05/08 05:02:04;;;;;;;11.07;4.90;;;;;;;15.28;54.57;94843.47;4212597;28;20052;-60
2023/05/08 05:04:06;;;;;;;6.85;4.28;;;;;;;15.28;54.75;94843.47;4224807;28;20051;-61
2023/05/08 05:06:08;;;;;;;5.85;3.97;;;;;;;15.32;54.87;94846.56;4225861;28;20051;-60
2023/05/08 05:08:10;;;;;;;7.47;3.97;;;;;;;15.37;54.81;94844.19;4225670;28;20104;-59
2023/05/08 05:10:11;;;;;;;5.60;3.72;;;;;;;15.45;54.50;94844.06;4224613;28;20102;-60
2023/05/08 05:12:13;;;;;;;6.38;4.10;;;;;;;15.55;54.72;94835.84;4213321;28;20055;-60
2023/05/08 05:14:15;;;;;;;6.97;4.25;;;;;;;15.64;54.00;94836.53;4218701;28;20089;-60
2023/05/08 05:16:16;;;;;;;6.35;4.10;;;;;;;15.69;53.97;94839.47;4217228;28;20051;-58
2023/05/08 05:18:18;;;;;;;5.45;3.78;;;;;;;15.72;54.13;94839.94;4222090;28;20053;-61
2023/05/08 05:20:20;;;;;;;8.68;4.95;;;;;;;15.81;53.85;94840.66;4203787;28;20168;-59
2023/05/08 05:22:22;;;;;;;7.15;4.20;;;;;;;15.89;53.68;94835.22;4224551;28;20051;-63
2023/05/08 05:24:23;;;;;;;7.15;4.40;;;;;;;15.96;53.34;94832.66;4215215;28;20052;-60
2023/05/08 05:26:25;;;;;;;8.25;5.05;;;;;;;15.83;53.29;94837.78;4211919;28;20059;-61
2023/05/08 05:28:27;;;;;;;7.97;4.75;;;;;;;15.60;53.87;94840.59;4220867;28;20051;-61
2023/05/08 05:30:28;;;;;;;19.15;5.57;;;;;;;15.51;54.68;94843.34;4222042;28;20040;-61
2023/05/08 05:32:30;;;;;;;17.15;5.22;;;;;;;15.44;55.13;94845.06;4216382;28;20052;-60
2023/05/08 05:34:32;;;;;;;7.32;4.75;;;;;;;15.58;56.12;94840.78;4218461;28;20058;-61
2023/05/08 05:36:33;;;;;;;8.18;4.70;;;;;;;15.76;56.98;94843.00;4217419;28;20155;-59
2023/05/08 05:38:35;;;;;;;9.52;4.80;;;;;;;15.89;55.06;94834.41;4220015;28;20080;-62
2023/05/08 05:40:37;;;;;;;5.68;4.45;;;;;;;15.89;54.06;94839.69;4222946;28;20069;-62
2023/05/08 05:42:38;;;;;;;14.50;4.95;;;;;;;15.97;54.09;94837.75;4220716;28;20077;-60
2023/05/08 05:44:43;;;;;;;6.60;4.80;;;;;;;16.05;53.49;94836.81;4220896;28;20523;-60
2023/05/08 05:46:45;;;;;;;8.63;4.95;;;;;;;16.20;54.34;94841.19;4221978;28;20051;-61
2023/05/08 05:48:46;;;;;;;13.60;5.15;;;;;;;16.40;53.92;94838.72;4220053;28;20101;-61
2023/05/08 05:50:48;;;;;;;11.18;4.53;;;;;;;16.50;52.40;94842.69;4218502;28;20048;-59
2023/05/08 05:52:50;;;;;;;11.15;5.43;;;;;;;16.52;52.15;94835.38;4220994;28;20071;-61
2023/05/08 05:54:51;;;;;;;8.88;4.88;;;;;;;16.43;52.30;94835.69;4215602;28;20048;-58
2023/05/08 05:56:53;;;;;;;6.45;4.95;;;;;;;16.30;52.81;94831.91;4213241;28;20134;-60
2023/05/08 05:58:55;;;;;;;5.85;4.88;;;;;;;16.07;53.29;94829.50;4227472;28;20035;-59
2023/05/08 06:00:59;;;;;;;8.25;5.07;;;;;;;15.84;53.56;94829.69;4219538;28;20044;-61
2023/05/08 06:03:01;;;;;;;9.93;5.10;;;;;;;16.02;53.81;94823.97;4225241;28;20105;-61
2023/05/08 06:05:04;;;;;;;14.35;4.80;;;;;;;16.20;53.48;94827.97;4227924;27;20117;-61
2023/05/08 06:07:05;;;;;;;9.77;5.38;;;;;;;16.36;53.11;94822.41;4213148;28;20048;-60
2023/05/08 06:09:07;;;;;;;11.02;5.70;;;;;;;16.26;53.09;94824.56;4221575;28;20077;-61
2023/05/08 06:11:09;;;;;;;9.82;5.85;;;;;;;16.27;53.08;94819.09;4218481;28;20050;-61
2023/05/08 06:13:10;;;;;;;12.80;6.22;;;;;;;16.12;53.14;94824.47;4213060;28;20577;-62
2023/05/08 06:15:13;;;;;;;10.52;5.75;;;;;;;16.27;53.57;94824.38;4218203;28;20223;-61
2023/05/08 06:17:16;;;;;;;9.80;6.00;;;;;;;16.40;53.31;94814.94;4217030;28;20051;-60
2023/05/08 06:19:17;;;;;;;8.55;5.97;;;;;;;16.55;53.17;94815.66;4217699;28;20131;-59
2023/05/08 06:21:19;;;;;;;12.00;6.45;;;;;;;16.70;52.84;94821.66;4217522;28;20044;-60
2023/05/08 06:23:21;;;;;;;9.20;5.90;;;;;;;16.74;53.10;94814.97;4224911;28;20504;-60
2023/05/08 06:25:23;;;;;;;8.40;5.97;;;;;;;16.79;52.45;94815.19;4224641;28;20526;-60
2023/05/08 06:27:25;;;;;;;7.82;5.18;;;;;;;16.86;52.62;94809.97;4217237;28;20051;-61
2023/05/08 06:29:26;;;;;;;7.22;5.47;;;;;;;16.95;52.08;94807.97;4211534;28;20078;-61
2023/05/08 06:31:28;;;;;;;13.80;6.00;;;;;;;16.99;51.78;94815.34;4213628;28;20119;-60
2023/05/08 06:33:30;;;;;;;9.77;6.60;;;;;;;16.74;52.12;94817.59;4212219;28;20055;-60
2023/05/08 06:35:32;;;;;;;9.13;6.22;;;;;;;16.45;52.69;94823.91;4226976;28;20047;-61
2023/05/08 06:37:33;;;;;;;9.88;6.68;;;;;;;16.10;53.50;94828.31;4220799;28;20056;-62
2023/05/08 06:39:35;;;;;;;9.98;6.53;;;;;;;16.10;53.89;94823.03;4224231;28;20051;-62
2023/05/08 06:41:37;;;;;;;12.63;6.72;;;;;;;16.12;53.71;94831.56;4226434;28;20039;-60
2023/05/08 06:43:38;;;;;;;11.10;6.05;;;;;;;16.20;53.49;94823.53;4218030;28;20055;-60
2023/05/08 06:45:42;;;;;;;14.50;5.72;;;;;;;16.42;53.42;94828.78;4212337;28;20458;-60
2023/05/08 06:47:43;;;;;;;11.15;6.85;;;;;;;16.73;52.85;94817.78;4223498;28;20051;-60
2023/05/08 06:49:45;;;;;;;12.02;6.55;;;;;;;17.01;52.29;94819.59;4227631;28;20177;-59
2023/05/08 06:51:47;;;;;;;14.23;7.50;;;;;;;17.22;51.75;94816.06;4224713;28;20390;-59
2023/05/08 06:53:48;;;;;;;11.82;6.28;;;;;;;17.36;51.82;94823.03;4226731;28;20296;-59
2023/05/08 06:55:50;;;;;;;10.23;6.82;;;;;;;17.54;51.47;94825.13;4213536;28;20377;-59
2023/05/08 06:57:52;;;;;;;9.18;6.65;;;;;;;17.67;50.87;94816.41;4227555;28;20086;-62
2023/05/08 06:59:53;;;;;;;12.25;6.32;;;;;;;17.71;50.28;94823.75;4227861;28;20123;-61
2023/05/08 07:01:55;;;;;;;13.20;6.60;;;;;;;17.34;50.95;94822.44;4227807;28;20051;-61
2023/05/08 07:03:57;;;;;;;9.65;7.68;;;;;;;17.22;51.24;94827.44;4222487;28;20044;-63
2023/05/08 07:05:58;;;;;;;11.95;7.57;;;;;;;16.83;52.33;94833.38;4217549;28;20558;-60
2023/05/08 07:08:00;;;;;;;9.77;7.03;;;;;;;16.64;53.27;94833.00;4226670;28;20056;-60
2023/05/08 07:10:02;;;;;;;10.30;7.20;;;;;;;16.77;53.15;94832.25;4220935;28;20411;-60
2023/05/08 07:12:05;;;;;;;10.30;6.57;;;;;;;16.88;52.70;94834.41;4227562;28;20477;-62
2023/05/08 07:14:06;;;;;;;10.23;7.15;;;;;;;17.05;52.27;94834.91;4229196;28;20055;-61
2023/05/08 07:16:09;;;;;;;10.23;6.57;;;;;;;17.02;52.02;94830.00;4228844;28;20164;-61
2023/05/08 07:18:11;;;;;;;11.25;7.10;;;;;;;16.92;52.29;94840.13;4214844;28;20135;-61
2023/05/08 07:20:13;;;;;;;13.55;7.88;;;;;;;16.71;52.60;94838.31;4215810;28;20067;-61
2023/05/08 07:22:15;;;;;;;9.98;7.45;;;;;;;16.88;52.70;94828.28;4227116;28;20135;-62
2023/05/08 07:24:16;;;;;;;11.98;7.72;;;;;;;17.13;52.23;94833.94;4217085;27;20055;-62
2023/05/08 07:26:18;;;;;;;15.85;8.75;;;;;;;17.22;51.80;94829.28;4212010;28;20154;-62
2023/05/08 07:28:20;;;;;;;18.55;9.45;;;;;;;17.27;52.23;94827.69;4225174;28;20059;-62
2023/05/08 07:30:21;;;;;;;10.90;8.02;;;;;;;17.16;51.93;94830.88;4212117;28;20447;-62
2023/05/08 07:32:23;;;;;;;10.18;7.75;;;;;;;17.05;52.20;94826.16;4209781;28;20101;-62
2023/05/08 07:34:25;;;;;;;10.95;7.50;;;;;;;16.99;52.97;94831.22;4220147;28;20051;-61
2023/05/08 07:36:27;;;;;;;11.38;6.40;;;;;;;16.72;53.08;94840.78;4226589;28;20051;-61
2023/05/08 07:38:28;;;;;;;10.18;6.05;;;;;;;16.49;53.91;94837.56;4224466;28;20092;-60
2023/05/08 07:40:30;;;;;;;10.90;6.30;;;;;;;16.52;54.05;94835.38;4227389;28;20733;-60
2023/05/08 07:42:46;;;;;;;8.63;5.35;;;;;;;16.26;53.65;94841.28;4214738;28;20466;-61
2023/05/08 07:44:47;;;;;;;12.70;6.57;;;;;;;16.53;53.83;94836.19;4223133;28;20048;-61
2023/05/08 07:46:55;;;;;;;13.18;6.65;;;;;;;16.92;53.03;94829.53;4222713;28;20471;-59
2023/05/08 07:48:57;;;;;;;8.55;5.82;;;;;;;16.97;52.26;94838.53;4203686;28;20048;-59
2023/05/08 07:50:59;;;;;;;10.32;5.20;;;;;;;16.72;52.22;94843.44;4212459;28;20040;-59
2023/05/08 07:53:00;;;;;;;15.93;6.20;;;;;;;16.65;52.58;94844.38;4222493;28;20150;-61
2023/05/08 07:55:03;;;;;;;9.18;5.07;;;;;;;16.97;52.07;94843.84;4223677;28;20467;-62
2023/05/08 07:57:04;;;;;;;7.53;5.15;;;;;;;17.19;51.28;94839.25;4216011;28;20423;-61
2023/05/08 07:59:06;;;;;;;11.13;5.55;;;;;;;17.07;51.60;94845.31;4216148;28;20063;-60
2023/05/08 08:01:07;;;;;;;7.38;5.57;;;;;;;16.84;52.20;94846.38;4226794;28;20047;-61
2023/05/08 08:03:09;;;;;;;12.52;5.43;;;;;;;16.94;52.60;94849.50;4221918;28;20051;-62
2023/05/08 08:05:11;;;;;;;12.13;5.35;;;;;;;17.33;51.90;94836.66;4222441;28;20082;-61
2023/05/08 08:07:13;;;;;;;7.20;5.10;;;;;;;17.77;50.95;94836.22;4214242;28;20129;-60
2023/05/08 08:09:15;;;;;;;8.85;4.57;;;;;;;18.02;49.92;94840.97;4222174;28;20047;-61
2023/05/08 08:11:16;;;;;;;7.78;5.10;;;;;;;18.33;49.28;94835.09;4216267;28;20039;-60
2023/05/08 08:13:18;;;;;;;11.52;5.47;;;;;;;18.37;49.25;94841.63;4216314;28;20048;-60
2023/05/08 08:15:20;;;;;;;7.97;4.78;;;;;;;18.09;50.23;94835.66;4218960;28;20075;-60
2023/05/08 08:17:22;;;;;;;9.30;5.45;;;;;;;18.20;50.47;94846.50;4217788;28;20070;-63
2023/05/08 08:19:23;;;;;;;10.40;5.25;;;;;;;17.66;51.82;94843.91;4221238;28;20641;-61
2023/05/08 08:21:26;;;;;;;8.13;4.90;;;;;;;17.50;52.55;94840.59;4214519;28;20101;-61
2023/05/08 08:23:27;;;;;;;5.63;4.90;;;;;;;17.64;52.58;94845.94;4219003;28;20078;-59
2023/05/08 08:25:29;;;;;;;7.28;4.70;;;;;;;18.08;52.16;94834.88;4216882;28;20055;-62
2023/05/08 08:27:31;;;;;;;9.75;4.30;;;;;;;18.47;51.53;94832.44;4215561;28;20527;-63
2023/05/08 08:29:32;;;;;;;10.88;5.13;;;;;;;18.67;50.63;94843.88;4212321;28;20044;-62
2023/05/08 08:31:34;;;;;;;11.07;4.63;;;;;;;18.89;50.18;94828.56;4202865;28;20048;-61
2023/05/08 08:33:36;;;;;;;12.20;4.55;;;;;;;18.92;50.54;94825.47;4212120;28;20065;-59
2023/05/08 08:35:38;;;;;;;9.27;5.15;;;;;;;19.02;50.09;94817.09;4227143;28;20634;-61
2023/05/08 08:37:39;;;;;;;11.25;4.28;;;;;;;19.28;49.71;94813.53;4217568;28;20151;-61
2023/05/08 08:39:41;;;;;;;9.35;5.18;;;;;;;19.17;50.27;94820.31;4211566;28;20052;-60
2023/05/08 08:41:43;;;;;;;8.02;4.68;;;;;;;19.18;50.20;94802.53;4217720;28;20047;-61
2023/05/08 08:43:45;;;;;;;9.82;4.75;;;;;;;19.21;50.40;94808.25;4225831;28;20497;-60
2023/05/08 08:45:47;;;;;;;13.65;6.38;;;;;;;18.89;51.19;94809.97;4226500;28;20043;-62
2023/05/08 08:47:51;;;;;;;16.45;5.55;;;;;;;18.71;51.43;94807.91;4219912;28;20043;-61
2023/05/08 08:49:53;;;;;;;10.35;5.30;;;;;;;18.70;51.81;94808.13;4226775;27;20043;-62
2023/05/08 08:51:58;;;;;;;15.48;6.68;;;;;;;18.92;51.91;94804.22;4225704;28;20180;-61
2023/05/08 08:54:08;;;;;;;16.35;5.80;;;;;;;18.93;51.17;94799.72;4226600;28;20040;-59
2023/05/08 08:56:10;;;;;;;10.45;5.32;;;;;;;19.21;51.49;94796.81;4221559;28;20052;-61
2023/05/08 08:58:37;;;;;;;10.60;5.38;;;;;;;19.46;50.48;94791.56;4200150;28;20476;-62
2023/05/08 09:00:40;;;;;;;9.68;5.38;;;;;;;19.54;50.16;94791.34;4218360;28;20071;-61
2023/05/08 09:02:42;;;;;;;15.45;5.68;;;;;;;19.48;50.23;94786.88;4226023;28;20431;-63
2023/05/08 09:04:44;;;;;;;16.63;9.52;;;;;;;19.18;50.16;94781.28;4214100;28;20066;-62
2023/05/08 09:06:46;;;;;;;10.15;5.95;;;;;;;18.89;50.78;94779.97;4222590;28;20048;-61
2023/05/08 09:08:48;;;;;;;9.13;6.03;;;;;;;18.93;51.08;94771.38;4212735;28;20044;-63
2023/05/08 09:10:51;;;;;;;9.93;5.88;;;;;;;18.97;50.82;94769.94;4212404;28;20093;-63
2023/05/08 09:12:53;;;;;;;15.90;6.82;;;;;;;19.02;50.95;94774.59;4215733;28;20128;-64
2023/05/08 09:14:54;;;;;;;10.43;5.60;;;;;;;18.99;51.20;94767.03;4213974;28;20044;-62
2023/05/08 09:16:56;;;;;;;7.95;5.05;;;;;;;18.83;51.35;94758.53;4217591;28;20051;-62
2023/05/08 09:18:58;;;;;;;11.38;5.18;;;;;;;18.95;51.64;94755.22;4219055;28;20138;-63
2023/05/08 09:21:00;;;;;;;9.65;5.20;;;;;;;19.16;51.69;94756.78;4222878;28;20130;-62
2023/05/08 09:23:02;;;;;;;6.38;4.90;;;;;;;19.34;51.31;94746.28;4214210;28;20055;-63
2023/05/08 09:25:05;;;;;;;9.95;5.38;;;;;;;19.55;51.19;94745.16;4218500;28;20165;-63
2023/05/08 09:27:20;;;;;;;8.70;5.30;;;;;;;19.79;50.61;94740.94;4218811;28;20079;-62
2023/05/08 09:29:21;;;;;;;8.55;5.25;;;;;;;19.94;49.98;94740.63;4205484;28;20078;-64
2023/05/08 09:31:33;;;;;;;11.35;5.35;;;;;;;19.84;49.50;94746.41;4209652;28;20036;-66
2023/05/08 09:33:42;;;;;;;10.40;5.25;;;;;;;19.43;50.18;94757.47;4213161;28;20055;-63
2023/05/08 09:35:47;;;;;;;13.70;5.65;;;;;;;19.29;50.92;94753.25;4212758;28;20044;-63
2023/05/08 09:37:48;;;;;;;9.02;5.25;;;;;;;19.08;51.60;94754.34;4213198;28;20131;-62
2023/05/08 09:39:50;;;;;;;9.60;5.45;;;;;;;18.95;51.41;94760.53;4213978;28;20047;-61
2023/05/08 09:42:02;;;;;;;7.05;5.43;;;;;;;19.00;51.94;94763.38;4220352;28;20092;-62